Terminal Aerodrome Forecast
Issued by NWS

Home | Current Version | Previous Version | Graphics & Text | Print | Product List | Glossary On
Versions: 1 2 3 4 5 6 7 8 9 10 11 12 13 14 15 16 17 18 19 20 21 22 23
000
FTUS41 KCLE 171700
TAFFDY
TAF
KFDY 171734Z 1718/1818 27006KT P6SM SCT045
     FM172200 VRB03KT P6SM SKC
     FM181100 02004KT P6SM SCT080
     FM181600 04008KT P6SM SCT040=

USA.gov is the U.S. government's official web portal to all federal, state and local government web resources and services.